Time;durP1;ratioP1;P1;durP2;ratioP2;P2;SDS_P1;SDS_P2;PMS_P1;PMS_P2;Temp;Humidity;BMP_temperature;BMP_pressure;BME280_temperature;BME280_humidity;BME280_pressure;Samples;Min_cycle;Max_cycle;Signal;HPM_P1;HPM_P2
2022/11/03 00:01:34;;;;;;;3.57;2.60;;;11.30;72.30;11.30;96905.00;;;;5012365;28;20191;-82
2022/11/03 00:04:04;;;;;;;3.30;2.67;;;11.30;72.40;11.30;96909.00;;;;5022251;28;20213;-82
2022/11/03 00:06:31;;;;;;;4.30;2.87;;;11.30;72.30;11.30;96899.00;;;;5019319;28;20794;-83
2022/11/03 00:09:00;;;;;;;2.53;2.33;;;11.30;72.40;11.30;96895.00;;;;5023861;28;20251;-83
2022/11/03 00:11:27;;;;;;;2.60;2.40;;;11.30;72.50;11.30;96894.00;;;;5020806;28;20198;-82
2022/11/03 00:13:56;;;;;;;3.20;2.27;;;11.30;72.60;11.30;96889.00;;;;5013807;28;20245;-82
2022/11/03 00:16:23;;;;;;;2.60;2.27;;;11.30;72.50;11.30;96892.00;;;;5030399;28;20224;-82
2022/11/03 00:18:53;;;;;;;3.80;2.40;;;11.30;72.50;11.30;96888.00;;;;5018725;28;20203;-82
2022/11/03 00:21:21;;;;;;;3.13;2.60;;;11.30;72.40;11.30;96878.00;;;;5014319;28;20214;-82
2022/11/03 00:23:49;;;;;;;3.23;2.47;;;11.30;72.30;11.30;96868.00;;;;5023964;28;20766;-82
2022/11/03 00:26:19;;;;;;;2.93;2.63;;;11.30;72.30;11.30;96870.00;;;;5023692;28;20228;-82
2022/11/03 00:28:49;;;;;;;2.73;2.53;;;11.30;72.30;11.30;96875.00;;;;5019955;28;20612;-82
2022/11/03 00:31:19;;;;;;;4.07;3.10;;;11.30;72.40;11.30;96871.00;;;;5019429;28;20238;-82
2022/11/03 00:33:48;;;;;;;3.83;2.50;;;11.30;72.50;11.30;96866.00;;;;5021417;28;20241;-82
2022/11/03 00:36:20;;;;;;;2.77;2.57;;;11.30;72.60;11.30;96869.00;;;;5025603;28;20201;-82
2022/11/03 00:38:48;;;;;;;3.27;2.63;;;11.30;72.70;11.30;96859.00;;;;5015612;28;20196;-82
2022/11/03 00:41:17;;;;;;;3.87;2.70;;;11.30;72.80;11.30;96860.00;;;;5028747;28;20197;-82
2022/11/03 00:43:44;;;;;;;2.87;2.67;;;11.30;72.90;11.30;96855.00;;;;5017317;28;20253;-82
2022/11/03 00:46:11;;;;;;;3.37;2.60;;;11.30;72.90;11.30;96865.00;;;;5017740;28;20256;-82
2022/11/03 00:48:39;;;;;;;6.07;2.60;;;11.30;73.10;11.30;96857.00;;;;5025422;28;21077;-82
2022/11/03 00:51:10;;;;;;;3.40;2.57;;;11.30;73.10;11.30;96859.00;;;;5020940;28;20656;-82
2022/11/03 00:53:41;;;;;;;2.60;2.30;;;11.30;73.10;11.40;96857.00;;;;5005717;28;20214;-82
2022/11/03 00:56:12;;;;;;;3.90;2.80;;;11.30;73.10;11.40;96852.00;;;;5013969;28;20221;-82
2022/11/03 00:58:41;;;;;;;3.30;2.30;;;11.30;73.10;11.40;96849.00;;;;5030316;28;20205;-81
2022/11/03 01:01:11;;;;;;;3.20;2.90;;;11.40;73.20;11.40;96849.00;;;;5021542;28;20202;-82
2022/11/03 01:06:48;;;;;;;4.23;3.07;;;11.40;73.20;11.40;96850.00;;;;5018051;28;20625;-83
2022/11/03 01:09:30;;;;;;;2.93;2.73;;;11.40;73.10;11.40;96844.00;;;;4957683;28;20226;-82
2022/11/03 01:12:00;;;;;;;3.63;2.30;;;11.40;73.00;11.40;96839.00;;;;5000887;28;20277;-82
2022/11/03 01:14:30;;;;;;;2.70;2.50;;;11.40;72.90;11.40;96831.00;;;;5024387;28;20325;-82
2022/11/03 01:16:58;;;;;;;2.77;2.53;;;11.40;72.80;11.30;96832.00;;;;5027321;28;20621;-82
2022/11/03 01:19:25;;;;;;;2.90;2.70;;;11.40;72.70;11.30;96827.00;;;;5025748;28;20225;-82
2022/11/03 01:21:53;;;;;;;3.83;2.33;;;11.40;72.70;11.30;96827.00;;;;5015255;28;20210;-82
2022/11/03 01:24:21;;;;;;;2.87;2.43;;;11.40;72.60;11.30;96828.00;;;;5013774;28;20268;-82
2022/11/03 01:26:50;;;;;;;3.03;2.60;;;11.30;72.60;11.30;96828.00;;;;5025608;28;20228;-82
2022/11/03 01:29:18;;;;;;;2.53;2.33;;;11.30;72.70;11.30;96822.00;;;;5015305;28;20218;-82
2022/11/03 01:31:45;;;;;;;3.07;2.47;;;11.30;72.90;11.30;96812.00;;;;5014002;28;20194;-83
2022/11/03 01:34:16;;;;;;;2.73;2.53;;;11.30;73.00;11.30;96811.00;;;;5011243;28;20245;-82
2022/11/03 01:36:44;;;;;;;2.90;2.70;;;11.30;73.00;11.30;96810.00;;;;5016474;28;20202;-82
2022/11/03 01:39:12;;;;;;;2.77;2.57;;;11.30;72.90;11.30;96807.00;;;;5007549;28;20197;-81
2022/11/03 01:41:42;;;;;;;2.50;2.30;;;11.30;73.00;11.30;96802.00;;;;5019260;28;20281;-82
2022/11/03 01:44:30;;;;;;;3.10;2.80;;;11.30;73.10;11.30;96808.00;;;;5020387;28;20260;-81
2022/11/03 01:47:06;;;;;;;3.33;2.60;;;11.30;73.40;11.30;96808.00;;;;5021489;28;20321;-82
2022/11/03 01:49:44;;;;;;;3.17;2.53;;;11.30;73.20;11.30;96808.00;;;;5026396;28;20201;-82
2022/11/03 01:52:17;;;;;;;2.93;2.70;;;11.30;73.10;11.30;96800.00;;;;5012873;28;20618;-82
2022/11/03 01:54:49;;;;;;;2.80;2.33;;;11.30;73.10;11.30;96799.00;;;;5020764;28;20375;-82
2022/11/03 01:57:23;;;;;;;4.80;2.57;;;11.30;73.00;11.30;96795.00;;;;5006765;28;20237;-82
2022/11/03 01:59:57;;;;;;;3.20;2.37;;;11.30;72.90;11.30;96785.00;;;;5022025;28;20212;-82
2022/11/03 02:02:24;;;;;;;5.27;3.03;;;11.30;72.90;11.30;96790.00;;;;5016802;28;20221;-81
2022/11/03 02:04:52;;;;;;;3.63;2.50;;;11.30;73.00;11.30;96786.00;;;;5006009;28;20245;-82
2022/11/03 02:07:27;;;;;;;3.43;2.50;;;11.30;73.10;11.30;96795.00;;;;5011394;28;20226;-82
2022/11/03 02:09:55;;;;;;;2.33;2.20;;;11.30;73.20;11.30;96789.00;;;;5014467;28;20252;-81
2022/11/03 02:12:23;;;;;;;3.03;2.73;;;11.30;73.00;11.30;96795.00;;;;5016754;28;20675;-82
2022/11/03 02:14:55;;;;;;;2.60;2.27;;;11.30;72.90;11.30;96784.00;;;;5008054;28;20691;-82
2022/11/03 02:17:27;;;;;;;3.43;2.27;;;11.30;72.80;11.30;96785.00;;;;5017506;28;20278;-82
2022/11/03 02:20:00;;;;;;;3.17;2.30;;;11.30;72.80;11.20;96779.00;;;;5019637;28;20242;-82
2022/11/03 02:22:59;;;;;;;3.60;2.53;;;11.30;72.80;11.30;96775.00;;;;5019692;28;20285;-82
2022/11/03 02:25:44;;;;;;;4.40;2.80;;;11.30;72.90;11.30;96764.00;;;;5015595;28;20229;-82
2022/11/03 02:28:14;;;;;;;3.40;2.40;;;11.30;73.00;11.30;96763.00;;;;5017471;28;20241;-82
2022/11/03 02:30:49;;;;;;;2.83;2.40;;;11.30;73.00;11.30;96755.00;;;;5011434;28;20329;-82
2022/11/03 02:33:47;;;;;;;2.70;2.50;;;11.30;73.20;11.30;96749.00;;;;5020750;28;20248;-81
2022/11/03 02:36:22;;;;;;;2.57;2.37;;;11.30;73.30;11.30;96751.00;;;;5013469;28;20202;-82
2022/11/03 02:38:57;;;;;;;3.13;2.27;;;11.30;73.10;11.30;96742.00;;;;5010833;28;20225;-81
2022/11/03 02:41:29;;;;;;;3.37;2.40;;;11.30;73.00;11.20;96751.00;;;;5015690;28;20186;-81
2022/11/03 02:43:58;;;;;;;2.50;2.30;;;11.30;72.90;11.20;96743.00;;;;5011676;28;20245;-81
2022/11/03 02:46:29;;;;;;;2.30;2.10;;;11.30;72.90;11.20;96749.00;;;;5021336;28;20244;-82
2022/11/03 02:48:57;;;;;;;2.43;2.23;;;11.30;73.00;11.20;96741.00;;;;5017310;28;20226;-82
2022/11/03 02:51:24;;;;;;;2.50;2.30;;;11.30;73.10;11.20;96732.00;;;;5010023;28;20375;-81
2022/11/03 02:54:04;;;;;;;2.70;2.50;;;11.30;73.10;11.20;96733.00;;;;5017521;28;20304;-82
2022/11/03 02:56:40;;;;;;;3.10;2.57;;;11.30;73.20;11.20;96725.00;;;;5022992;28;20212;-82
2022/11/03 02:59:13;;;;;;;3.73;2.23;;;11.30;73.20;11.20;96725.00;;;;5019700;28;20242;-82
2022/11/03 03:01:48;;;;;;;3.30;2.43;;;11.20;73.00;11.20;96720.00;;;;5014901;28;20248;-82
2022/11/03 03:04:22;;;;;;;2.77;2.00;;;11.20;72.90;11.10;96710.00;;;;5010483;28;20214;-82
2022/11/03 03:06:55;;;;;;;3.20;2.33;;;11.20;72.90;11.10;96703.00;;;;5013559;28;20256;-83
2022/11/03 03:09:30;;;;;;;3.23;2.63;;;11.20;72.90;11.10;96705.00;;;;5010161;28;20210;-82
2022/11/03 03:12:02;;;;;;;3.70;2.30;;;11.20;72.90;11.10;96692.00;;;;5011395;28;20221;-82
2022/11/03 03:14:34;;;;;;;3.27;2.40;;;11.20;72.90;11.10;96686.00;;;;5020414;28;20251;-82
2022/11/03 03:17:07;;;;;;;2.57;2.37;;;11.10;72.90;11.10;96679.00;;;;5018198;28;20198;-82
2022/11/03 03:19:48;;;;;;;3.33;2.60;;;11.20;73.10;11.10;96678.00;;;;5016994;28;20221;-82
2022/11/03 03:22:28;;;;;;;3.13;2.83;;;11.20;73.20;11.10;96675.00;;;;5025889;28;20193;-82
2022/11/03 03:25:04;;;;;;;3.43;3.13;;;11.10;73.20;11.10;96681.00;;;;5008488;28;20237;-83
2022/11/03 03:27:39;;;;;;;2.60;2.40;;;11.10;73.20;11.10;96671.00;;;;5018755;28;20245;-82
2022/11/03 03:30:08;;;;;;;2.90;2.47;;;11.10;73.10;11.10;96676.00;;;;5028540;28;20713;-82
2022/11/03 03:32:40;;;;;;;2.97;2.67;;;11.10;73.20;11.10;96673.00;;;;5014875;28;20194;-82
2022/11/03 03:35:15;;;;;;;3.20;2.83;;;11.10;73.40;11.10;96675.00;;;;5032588;28;20255;-82
2022/11/03 03:37:48;;;;;;;4.07;2.80;;;11.10;73.70;11.10;96678.00;;;;5021445;28;20711;-82
2022/11/03 03:40:22;;;;;;;3.40;2.93;;;11.10;73.40;11.10;96673.00;;;;5022874;28;20288;-82
2022/11/03 03:42:53;;;;;;;2.70;2.50;;;11.10;73.30;11.10;96665.00;;;;5022210;28;20217;-83
2022/11/03 03:45:20;;;;;;;4.73;2.90;;;11.10;73.40;11.10;96677.00;;;;5017982;28;20280;-82
2022/11/03 03:47:49;;;;;;;3.10;2.90;;;11.10;73.50;11.10;96670.00;;;;5022617;28;20249;-81
2022/11/03 03:50:17;;;;;;;3.10;2.80;;;11.10;73.50;11.10;96677.00;;;;5022356;28;20225;-82
2022/11/03 03:52:44;;;;;;;2.93;2.63;;;11.10;73.50;11.10;96673.00;;;;5018539;28;20190;-82
2022/11/03 03:55:20;;;;;;;2.97;2.63;;;11.10;73.50;11.10;96681.00;;;;5021651;28;20565;-81
2022/11/03 03:57:47;;;;;;;3.00;2.77;;;11.10;73.50;11.00;96681.00;;;;5020172;28;20232;-81
2022/11/03 04:00:18;;;;;;;2.50;2.30;;;11.10;73.40;11.00;96682.00;;;;5015553;28;20667;-82
2022/11/03 04:02:45;;;;;;;2.83;2.63;;;11.10;73.40;11.00;96674.00;;;;5018016;28;21111;-83
2022/11/03 04:05:12;;;;;;;3.43;3.13;;;11.00;73.30;11.00;96669.00;;;;5018404;28;20218;-82
2022/11/03 04:07:48;;;;;;;2.90;2.70;;;11.00;73.30;11.00;96656.00;;;;5017582;28;20309;-82
2022/11/03 04:10:17;;;;;;;2.90;2.70;;;11.00;73.30;11.00;96656.00;;;;5014156;28;20197;-83
2022/11/03 04:23:59;;;;;;;2.80;2.60;;;11.00;73.40;10.90;96647.00;;;;5011157;28;20244;-81
2022/11/03 04:26:28;;;;;;;3.23;2.40;;;11.00;73.30;10.90;96650.00;;;;5026284;28;20255;-81
2022/11/03 04:28:58;;;;;;;2.47;2.27;;;10.90;73.30;10.80;96653.00;;;;5016976;28;20194;-81
2022/11/03 04:31:30;;;;;;;3.40;3.03;;;10.90;73.20;10.80;96646.00;;;;5016137;28;20659;-82
2022/11/03 04:33:57;;;;;;;3.27;2.97;;;10.90;73.10;10.80;96654.00;;;;5013809;28;20223;-82
2022/11/03 04:36:26;;;;;;;3.10;2.90;;;10.90;73.00;10.80;96635.00;;;;5011773;28;20739;-81
2022/11/03 04:38:53;;;;;;;3.57;2.90;;;10.90;73.10;10.70;96645.00;;;;5011153;28;20289;-81
2022/11/03 04:41:25;;;;;;;4.30;2.97;;;10.80;73.10;10.70;96628.00;;;;5019118;28;20244;-81
2022/11/03 04:43:53;;;;;;;3.47;2.67;;;10.80;73.10;10.70;96628.00;;;;5009548;28;20217;-82
2022/11/03 04:46:27;;;;;;;2.83;2.63;;;10.80;73.20;10.70;96613.00;;;;5018008;28;20202;-82
2022/11/03 04:48:59;;;;;;;2.87;2.67;;;10.80;73.20;10.60;96625.00;;;;5018387;28;20609;-82
2022/11/03 04:51:32;;;;;;;2.90;2.70;;;10.80;73.10;10.60;96615.00;;;;5013363;28;20198;-83
2022/11/03 04:54:04;;;;;;;3.87;3.20;;;10.70;73.00;10.60;96611.00;;;;5012220;28;20283;-82
2022/11/03 04:56:32;;;;;;;4.50;2.90;;;10.70;73.00;10.60;96603.00;;;;5020234;28;20206;-82
2022/11/03 04:59:00;;;;;;;3.30;2.90;;;10.70;73.10;10.60;96601.00;;;;5011818;28;20206;-82
2022/11/03 05:01:30;;;;;;;4.30;3.13;;;10.70;73.20;10.60;96597.00;;;;5011321;28;20221;-83
2022/11/03 05:03:57;;;;;;;2.70;2.50;;;10.70;73.50;10.60;96596.00;;;;5011396;28;20210;-81
2022/11/03 05:06:28;;;;;;;3.13;2.87;;;10.60;73.50;10.50;96594.00;;;;5015433;28;20285;-81
2022/11/03 05:09:00;;;;;;;4.30;2.80;;;10.60;73.60;10.50;96589.00;;;;5011116;28;20245;-81
2022/11/03 05:11:37;;;;;;;2.93;2.67;;;10.60;73.50;10.50;96596.00;;;;5016311;28;20601;-83
2022/11/03 05:14:15;;;;;;;2.80;2.60;;;10.60;73.50;10.50;96589.00;;;;5012013;28;20252;-82
2022/11/03 05:16:44;;;;;;;6.77;2.73;;;10.60;73.60;10.50;96578.00;;;;5019831;28;20226;-81
2022/11/03 05:19:20;;;;;;;3.17;2.97;;;10.60;73.70;10.50;96585.00;;;;5011550;28;20609;-81
2022/11/03 05:21:49;;;;;;;2.87;2.67;;;10.60;73.80;10.50;96572.00;;;;5013353;28;20601;-81
2022/11/03 05:24:21;;;;;;;2.77;2.57;;;10.60;73.80;10.50;96570.00;;;;5022369;28;20210;-81
2022/11/03 05:26:49;;;;;;;3.57;3.27;;;10.60;74.00;10.50;96577.00;;;;5023019;28;20569;-81
2022/11/03 05:29:25;;;;;;;3.30;3.00;;;10.60;74.10;10.50;96573.00;;;;5025996;28;20292;-80
2022/11/03 05:31:56;;;;;;;2.97;2.73;;;10.60;74.20;10.60;96573.00;;;;5023487;28;20645;-81
2022/11/03 05:34:37;;;;;;;3.20;2.87;;;10.60;74.40;10.60;96569.00;;;;5018113;28;20225;-80
2022/11/03 05:37:24;;;;;;;2.83;2.40;;;10.60;74.50;10.60;96565.00;;;;5015397;28;20244;-81
2022/11/03 05:39:53;;;;;;;3.10;2.80;;;10.60;74.60;10.60;96566.00;;;;5012937;28;20449;-81
2022/11/03 05:42:31;;;;;;;2.60;2.40;;;10.60;74.50;10.60;96568.00;;;;5019017;28;20270;-82
2022/11/03 05:45:04;;;;;;;3.30;2.87;;;10.70;74.80;10.70;96566.00;;;;5018993;28;20217;-81
2022/11/03 05:47:37;;;;;;;3.00;2.80;;;10.70;74.80;10.70;96564.00;;;;5017425;28;20846;-81
2022/11/03 05:50:19;;;;;;;2.80;2.60;;;10.70;75.00;10.70;96557.00;;;;5032424;28;20267;-82
2022/11/03 05:52:49;;;;;;;3.47;3.13;;;10.70;75.10;10.70;96559.00;;;;5020779;28;20193;-80
2022/11/03 05:55:29;;;;;;;3.50;3.03;;;10.70;75.00;10.80;96553.00;;;;5017428;28;20304;-81
2022/11/03 05:57:59;;;;;;;3.47;3.07;;;10.80;75.20;10.80;96544.00;;;;5011651;28;20201;-80
2022/11/03 06:00:33;;;;;;;4.23;3.63;;;10.80;75.10;10.80;96550.00;;;;5015223;28;20264;-81
2022/11/03 06:03:02;;;;;;;5.00;3.60;;;10.80;75.00;10.90;96553.00;;;;5018193;28;20201;-84
2022/11/03 06:05:32;;;;;;;3.60;3.30;;;10.90;75.20;10.90;96541.00;;;;5015005;28;20198;-84
2022/11/03 06:08:03;;;;;;;3.83;3.53;;;10.80;75.20;11.00;96545.00;;;;5021902;28;20605;-84
2022/11/03 06:10:35;;;;;;;8.43;3.67;;;10.90;75.40;11.10;96542.00;;;;5013341;28;20645;-84
2022/11/03 06:13:13;;;;;;;7.17;3.00;;;11.00;75.40;11.10;96548.00;;;;5013819;28;20193;-84
2022/11/03 06:15:45;;;;;;;8.80;2.83;;;11.00;75.40;11.20;96544.00;;;;5021310;28;20228;-84
2022/11/03 06:18:19;;;;;;;5.87;3.13;;;11.00;75.30;11.20;96543.00;;;;5021801;28;20186;-84
2022/11/03 06:20:52;;;;;;;4.20;2.80;;;11.00;75.40;11.30;96547.00;;;;5015820;28;20193;-84
2022/11/03 06:23:21;;;;;;;3.70;2.97;;;11.10;75.50;11.30;96542.00;;;;5015815;28;20257;-84
2022/11/03 06:25:51;;;;;;;5.23;3.37;;;11.10;75.40;11.30;96551.00;;;;5027016;28;20292;-84
2022/11/03 06:28:23;;;;;;;4.07;3.30;;;11.10;75.40;11.30;96551.00;;;;5018216;28;20305;-85
2022/11/03 06:30:51;;;;;;;3.70;3.07;;;11.10;75.50;11.40;96542.00;;;;4999431;28;20245;-85
2022/11/03 06:33:25;;;;;;;3.33;2.97;;;11.20;75.50;11.40;96547.00;;;;5024904;28;20279;-84
2022/11/03 06:35:59;;;;;;;5.83;2.63;;;11.20;75.50;11.40;96540.00;;;;5003257;28;20641;-85
2022/11/03 06:38:29;;;;;;;3.20;2.90;;;11.20;75.50;11.50;96538.00;;;;5013714;28;20278;-85
2022/11/03 06:40:58;;;;;;;2.47;2.27;;;11.30;75.60;11.50;96533.00;;;;5008926;28;20281;-84
2022/11/03 06:43:33;;;;;;;3.07;2.87;;;11.30;75.60;11.50;96531.00;;;;5007332;28;20276;-85
2022/11/03 06:46:09;;;;;;;2.43;2.27;;;11.30;75.60;11.60;96527.00;;;;5011457;28;20189;-85
2022/11/03 06:48:39;;;;;;;3.57;2.53;;;11.40;75.70;11.60;96528.00;;;;5004248;28;20305;-85
2022/11/03 06:51:18;;;;;;;3.50;3.03;;;11.40;75.70;11.60;96534.00;;;;5011059;28;20290;-85
2022/11/03 06:53:47;;;;;;;3.20;3.00;;;11.40;75.70;11.70;96527.00;;;;5013022;28;20687;-85
2022/11/03 06:56:20;;;;;;;4.93;3.23;;;11.50;75.60;11.70;96526.00;;;;5014421;28;20253;-85
2022/11/03 06:58:49;;;;;;;4.00;3.17;;;11.50;75.70;11.80;96532.00;;;;5013565;28;20241;-85
2022/11/03 07:01:22;;;;;;;3.13;2.83;;;11.50;75.60;11.80;96531.00;;;;5019715;28;20625;-84
2022/11/03 07:03:58;;;;;;;5.67;3.47;;;11.60;75.80;11.80;96531.00;;;;5011286;28;20245;-85
2022/11/03 07:06:29;;;;;;;3.30;3.10;;;11.60;75.80;11.90;96520.00;;;;4997538;28;20679;-84
2022/11/03 07:09:00;;;;;;;3.77;3.47;;;11.60;75.90;11.90;96514.00;;;;5018797;28;20679;-85
2022/11/03 07:11:30;;;;;;;7.37;3.10;;;11.70;76.10;11.90;96525.00;;;;5015864;28;20280;-84
2022/11/03 07:14:09;;;;;;;3.00;2.70;;;11.70;76.10;12.00;96520.00;;;;5019856;28;20312;-85
2022/11/03 07:16:43;;;;;;;5.10;2.83;;;11.70;76.20;12.00;96521.00;;;;5004481;28;20198;-83
2022/11/03 07:19:18;;;;;;;7.63;3.00;;;11.80;76.40;12.10;96528.00;;;;5012315;28;20655;-84
2022/11/03 07:21:50;;;;;;;5.63;2.73;;;11.80;76.40;12.10;96516.00;;;;5014472;28;20197;-82
2022/11/03 07:24:22;;;;;;;6.40;3.10;;;11.80;76.40;12.10;96514.00;;;;5017368;28;20226;-84
2022/11/03 07:26:54;;;;;;;6.63;3.27;;;11.90;76.60;12.20;96506.00;;;;5023624;28;20648;-82
2022/11/03 07:29:28;;;;;;;8.50;3.30;;;11.90;76.60;12.20;96510.00;;;;5011582;28;20210;-86
2022/11/03 07:31:59;;;;;;;4.87;3.43;;;12.00;76.80;12.30;96508.00;;;;5016931;28;20189;-82
2022/11/03 07:34:33;;;;;;;3.77;3.37;;;12.00;76.80;12.30;96513.00;;;;5027183;28;20226;-84
2022/11/03 07:37:00;;;;;;;4.33;3.67;;;12.10;76.90;12.40;96511.00;;;;5012158;28;20621;-81
2022/11/03 07:39:34;;;;;;;4.10;3.40;;;12.10;76.90;12.40;96520.00;;;;5021979;28;20206;-84
2022/11/03 07:42:13;;;;;;;4.97;3.20;;;12.10;77.10;12.50;96515.00;;;;5014941;28;20196;-82
2022/11/03 07:44:41;;;;;;;4.40;3.93;;;12.10;77.00;12.50;96512.00;;;;5018273;28;20217;-83
2022/11/03 07:47:15;;;;;;;3.53;3.23;;;12.20;77.00;12.50;96509.00;;;;5017829;28;20642;-81
2022/11/03 07:49:45;;;;;;;6.83;3.53;;;12.30;77.10;12.50;96503.00;;;;5017029;28;20210;-81
2022/11/03 07:52:19;;;;;;;4.47;3.90;;;12.30;77.00;12.60;96500.00;;;;5014365;28;20218;-83
2022/11/03 07:54:46;;;;;;;11.93;4.30;;;12.30;76.90;12.60;96494.00;;;;5014666;28;20244;-81
2022/11/03 07:57:21;;;;;;;14.27;4.37;;;12.30;76.80;12.60;96499.00;;;;5025978;28;20717;-81
2022/11/03 07:59:52;;;;;;;5.30;3.90;;;12.40;77.60;12.60;96491.00;;;;5030153;28;20209;-83
2022/11/03 08:02:31;;;;;;;13.83;4.30;;;12.30;76.80;12.60;96479.00;;;;5022932;28;20201;-82
2022/11/03 08:04:59;;;;;;;10.27;4.33;;;12.40;76.90;12.70;96480.00;;;;5015526;28;20229;-84
2022/11/03 08:07:28;;;;;;;15.47;4.13;;;12.40;76.90;12.70;96472.00;;;;5017150;28;20221;-83
2022/11/03 08:09:55;;;;;;;13.30;4.67;;;12.40;76.80;12.70;96473.00;;;;5019617;28;20221;-81
2022/11/03 08:12:23;;;;;;;7.87;4.27;;;12.50;76.80;12.70;96477.00;;;;5023652;28;20686;-83
2022/11/03 08:14:50;;;;;;;8.10;4.30;;;12.40;76.70;12.70;96468.00;;;;5021829;28;20218;-83
2022/11/03 08:17:18;;;;;;;8.10;4.07;;;12.50;76.70;12.70;96455.00;;;;5023232;28;20713;-81
2022/11/03 08:19:45;;;;;;;8.13;3.83;;;12.50;76.70;12.70;96458.00;;;;5023070;28;20198;-82
2022/11/03 08:22:13;;;;;;;12.53;4.37;;;12.50;76.70;12.70;96449.00;;;;5022590;28;20206;-81
2022/11/03 08:24:40;;;;;;;22.83;5.13;;;12.50;76.70;12.70;96455.00;;;;5021436;28;20230;-83
2022/11/03 08:27:08;;;;;;;21.17;4.87;;;12.50;76.60;12.70;96447.00;;;;5022745;28;20198;-82
2022/11/03 08:29:35;;;;;;;5.60;3.90;;;12.50;76.60;12.80;96437.00;;;;5021490;28;20233;-83
2022/11/03 08:32:02;;;;;;;4.90;4.37;;;12.50;76.70;12.80;96432.00;;;;5017377;28;20205;-81
2022/11/03 08:34:29;;;;;;;7.33;4.57;;;12.60;76.90;12.80;96425.00;;;;5012042;28;20683;-81
2022/11/03 08:36:57;;;;;;;7.77;5.00;;;12.60;76.90;12.80;96419.00;;;;5014981;28;20230;-81
2022/11/03 08:39:25;;;;;;;6.60;4.87;;;12.60;77.00;12.80;96421.00;;;;5015644;28;20209;-81
2022/11/03 08:41:52;;;;;;;7.23;5.47;;;12.60;77.10;12.90;96424.00;;;;5015814;28;20197;-81
2022/11/03 08:44:19;;;;;;;4.63;4.10;;;12.60;77.00;12.90;96415.00;;;;5014193;28;20218;-81
2022/11/03 08:46:47;;;;;;;7.00;4.77;;;12.70;77.20;12.90;96406.00;;;;5015090;28;20228;-81
2022/11/03 08:49:14;;;;;;;7.30;5.20;;;12.70;77.30;13.00;96396.00;;;;5012180;28;20760;-81
2022/11/03 08:51:41;;;;;;;9.67;5.03;;;12.70;77.20;13.00;96398.00;;;;5019108;28;20674;-81
2022/11/03 08:54:08;;;;;;;9.43;5.03;;;12.70;77.10;13.00;96390.00;;;;5019797;28;20218;-81
2022/11/03 08:56:37;;;;;;;6.70;4.87;;;12.80;77.00;13.00;96384.00;;;;5016659;28;20261;-80
2022/11/03 08:59:04;;;;;;;4.73;4.13;;;12.80;77.00;13.00;96387.00;;;;5017426;28;20198;-80
2022/11/03 09:01:32;;;;;;;6.73;4.53;;;12.80;77.00;13.00;96389.00;;;;5019065;28;20279;-80
2022/11/03 09:03:59;;;;;;;5.70;4.90;;;12.80;76.90;13.00;96389.00;;;;5018777;28;20657;-81
2022/11/03 09:06:26;;;;;;;6.80;4.40;;;12.80;77.00;13.10;96390.00;;;;5019301;28;20260;-81
2022/11/03 09:08:53;;;;;;;5.10;4.60;;;12.80;77.10;13.10;96388.00;;;;5014251;28;20225;-80
2022/11/03 09:11:21;;;;;;;5.00;4.40;;;12.80;77.10;13.10;96378.00;;;;5016816;28;20190;-81
2022/11/03 09:13:49;;;;;;;5.67;4.73;;;12.90;77.10;13.10;96384.00;;;;5020047;28;20249;-80
2022/11/03 09:16:16;;;;;;;5.23;4.43;;;12.90;77.20;13.20;96380.00;;;;5018758;28;20233;-80
2022/11/03 09:18:44;;;;;;;5.90;5.30;;;12.90;77.30;13.20;96374.00;;;;5019602;28;20302;-81
2022/11/03 09:21:12;;;;;;;9.00;5.20;;;13.00;78.20;13.30;96379.00;;;;5019230;28;20647;-81
2022/11/03 09:23:39;;;;;;;7.47;5.30;;;13.00;77.60;13.30;96373.00;;;;5015546;28;20222;-81
2022/11/03 09:26:06;;;;;;;5.73;5.20;;;13.10;77.60;13.40;96370.00;;;;5016117;28;20206;-81
2022/11/03 09:28:33;;;;;;;7.53;5.13;;;13.10;77.70;13.40;96371.00;;;;5012047;28;20666;-81
2022/11/03 09:31:02;;;;;;;6.23;4.70;;;13.10;77.60;13.50;96364.00;;;;5019314;28;20228;-79
2022/11/03 09:33:30;;;;;;;5.20;4.80;;;13.20;77.60;13.50;96354.00;;;;5018456;28;20218;-80
2022/11/03 09:35:57;;;;;;;6.00;4.87;;;13.20;77.30;13.50;96348.00;;;;5015642;28;20237;-81
2022/11/03 09:38:24;;;;;;;5.70;5.13;;;13.30;77.40;13.60;96344.00;;;;5018962;28;20701;-81
2022/11/03 09:40:51;;;;;;;5.87;5.20;;;13.30;77.40;13.60;96338.00;;;;5018299;28;20202;-81
2022/11/03 09:43:19;;;;;;;5.53;5.03;;;13.30;77.60;13.70;96347.00;;;;5018420;28;20737;-81
2022/11/03 09:45:46;;;;;;;5.60;5.03;;;13.40;77.70;13.70;96346.00;;;;5018717;28;20297;-81
2022/11/03 09:48:15;;;;;;;6.07;5.47;;;13.40;77.70;13.80;96348.00;;;;5018344;28;20217;-81
2022/11/03 09:50:42;;;;;;;5.33;4.83;;;13.50;77.90;13.90;96352.00;;;;5020114;28;20230;-80
2022/11/03 09:53:12;;;;;;;5.60;4.97;;;13.50;77.80;13.90;96344.00;;;;5019858;28;20198;-80
2022/11/03 09:55:40;;;;;;;4.73;4.30;;;13.60;77.70;14.00;96342.00;;;;5020210;28;20208;-81
2022/11/03 09:58:14;;;;;;;4.73;4.33;;;13.60;77.60;14.00;96335.00;;;;5020358;28;20256;-81
2022/11/03 10:00:41;;;;;;;5.37;4.87;;;13.70;77.60;14.10;96338.00;;;;5019449;28;20198;-80
2022/11/03 10:03:12;;;;;;;6.80;5.30;;;13.70;77.50;14.10;96344.00;;;;5020192;28;20620;-80
2022/11/03 10:05:43;;;;;;;5.53;5.03;;;13.70;77.30;14.10;96347.00;;;;5018197;28;20663;-81
2022/11/03 10:08:21;;;;;;;8.60;5.40;;;13.80;77.10;14.10;96340.00;;;;5018518;28;20226;-81
2022/11/03 10:10:49;;;;;;;6.10;5.50;;;13.80;77.00;14.20;96334.00;;;;5019039;28;20205;-80
2022/11/03 10:13:28;;;;;;;19.30;6.23;;;13.80;76.80;14.20;96336.00;;;;5019038;28;20226;-80
2022/11/03 10:15:56;;;;;;;8.13;5.50;;;13.80;76.80;14.20;96316.00;;;;5018661;28;20721;-80
2022/11/03 10:18:24;;;;;;;5.00;4.60;;;13.90;76.80;14.30;96318.00;;;;5014028;28;20198;-80
2022/11/03 10:20:52;;;;;;;5.73;5.10;;;13.90;76.60;14.30;96315.00;;;;5017738;28;20309;-80
2022/11/03 10:23:19;;;;;;;5.53;5.03;;;13.90;76.60;14.30;96313.00;;;;5018662;28;20727;-80
2022/11/03 10:25:47;;;;;;;4.67;4.27;;;13.90;76.60;14.30;96300.00;;;;5019573;28;20301;-80
2022/11/03 10:28:19;;;;;;;5.60;5.07;;;14.00;76.70;14.40;96298.00;;;;5016341;28;20206;-80
2022/11/03 10:30:52;;;;;;;5.47;5.00;;;14.00;76.70;14.50;96304.00;;;;5015260;28;20621;-80
2022/11/03 10:33:30;;;;;;;4.90;4.50;;;14.10;76.90;14.50;96305.00;;;;5014418;28;20241;-80
2022/11/03 10:36:01;;;;;;;4.67;4.27;;;14.10;76.60;14.50;96302.00;;;;5017243;28;20622;-81
2022/11/03 10:38:31;;;;;;;4.63;4.33;;;14.10;76.40;14.50;96293.00;;;;5015983;28;20194;-80
2022/11/03 10:41:12;;;;;;;4.37;4.07;;;14.10;76.30;14.50;96284.00;;;;5017614;28;20204;-80
2022/11/03 10:43:41;;;;;;;4.10;3.80;;;14.20;76.30;14.50;96279.00;;;;5017696;28;20787;-80
2022/11/03 10:46:19;;;;;;;4.30;4.00;;;14.20;76.20;14.60;96268.00;;;;5014842;28;20237;-80
2022/11/03 10:49:04;;;;;;;4.37;3.97;;;14.20;76.10;14.60;96277.00;;;;5016364;28;20217;-81
2022/11/03 10:51:34;;;;;;;4.30;3.90;;;14.20;76.30;14.60;96266.00;;;;5014247;28;20217;-80
2022/11/03 10:54:03;;;;;;;4.80;4.23;;;14.20;76.30;14.70;96277.00;;;;5015267;28;20695;-80
2022/11/03 10:56:31;;;;;;;4.40;4.00;;;14.30;76.30;14.70;96270.00;;;;5016277;28;20326;-81
2022/11/03 10:59:00;;;;;;;4.03;3.73;;;14.30;76.10;14.80;96269.00;;;;5015403;28;20297;-80
2022/11/03 11:01:28;;;;;;;4.17;3.87;;;14.30;76.10;14.80;96273.00;;;;5015500;28;20265;-80
2022/11/03 11:03:55;;;;;;;4.07;3.67;;;14.40;76.10;14.80;96268.00;;;;5017091;28;20316;-80
2022/11/03 11:06:26;;;;;;;4.07;3.63;;;14.40;76.10;14.90;96265.00;;;;5015790;28;20610;-80
2022/11/03 11:09:02;;;;;;;4.40;3.97;;;14.50;76.00;14.90;96265.00;;;;5016384;28;20987;-80
2022/11/03 11:11:29;;;;;;;4.17;3.87;;;14.50;76.10;15.00;96263.00;;;;5011699;28;20261;-80
2022/11/03 11:14:55;;;;;;;3.90;3.60;;;14.50;76.00;15.00;96261.00;;;;5016623;28;20754;-81
2022/11/03 11:17:50;;;;;;;4.70;4.20;;;14.60;76.00;15.10;96256.00;;;;4933376;29;20208;-80
2022/11/03 11:20:32;;;;;;;3.90;3.60;;;14.60;76.00;15.10;96253.00;;;;5014588;28;20256;-80
2022/11/03 11:23:50;;;;;;;4.10;3.70;;;14.70;76.00;15.10;96255.00;;;;5015127;28;20535;-80
2022/11/03 11:26:37;;;;;;;4.30;4.00;;;14.70;75.80;15.20;96253.00;;;;5010299;28;20202;-80
2022/11/03 11:29:42;;;;;;;4.00;3.70;;;14.80;75.70;15.20;96254.00;;;;5012956;28;20304;-80